Time;durP1;ratioP1;P1;durP2;ratioP2;P2;SDS_P1;SDS_P2;PMS_P1;PMS_P2;Temp;Humidity;BMP_temperature;BMP_pressure;BME280_temperature;BME280_humidity;BME280_pressure;Samples;Min_cycle;Max_cycle;Signal;HPM_P1;HPM_P2
2023/06/14 00:01:51;;;;;;;3.35;2.97;;;21.10;48.30;;;;;;5020120;28;20258;-69
2023/06/14 00:04:20;;;;;;;3.70;3.40;;;21.10;48.50;;;;;;5020124;28;20246;-69
2023/06/14 00:06:50;;;;;;;3.78;3.10;;;21.10;48.60;;;;;;5020494;28;20180;-69
2023/06/14 00:09:17;;;;;;;3.78;3.05;;;21.00;48.60;;;;;;5029321;28;20205;-68
2023/06/14 00:11:43;;;;;;;5.22;3.10;;;21.00;48.80;;;;;;5049895;28;20188;-69
2023/06/14 00:14:09;;;;;;;3.40;3.00;;;21.00;49.00;;;;;;5048169;28;20184;-69
2023/06/14 00:16:36;;;;;;;3.70;3.30;;;20.90;49.00;;;;;;5055194;28;20256;-69
2023/06/14 00:19:05;;;;;;;3.92;3.17;;;20.90;49.20;;;;;;5040279;28;20181;-69
2023/06/14 00:21:34;;;;;;;4.05;3.40;;;20.80;49.10;;;;;;5039785;28;20208;-69
2023/06/14 00:24:01;;;;;;;4.20;3.55;;;20.80;49.30;;;;;;5056639;28;20169;-70
2023/06/14 00:26:31;;;;;;;4.15;3.40;;;20.70;49.30;;;;;;5039196;28;20213;-69
2023/06/14 00:28:57;;;;;;;3.53;3.22;;;20.70;49.80;;;;;;5026988;28;20200;-69
2023/06/14 00:31:25;;;;;;;4.10;3.42;;;20.60;49.80;;;;;;5056515;28;20198;-69
2023/06/14 00:33:51;;;;;;;4.13;3.72;;;20.60;50.40;;;;;;5039943;28;20315;-69
2023/06/14 00:36:19;;;;;;;3.90;3.50;;;20.50;50.30;;;;;;5025083;28;20247;-69
2023/06/14 00:38:44;;;;;;;4.13;3.58;;;20.40;50.50;;;;;;5019391;28;20178;-71
2023/06/14 00:41:10;;;;;;;4.07;3.50;;;20.40;50.60;;;;;;5019896;28;20601;-69
2023/06/14 00:43:38;;;;;;;4.03;3.40;;;20.40;50.60;;;;;;5029208;28;20228;-69
2023/06/14 00:46:03;;;;;;;4.80;3.67;;;20.30;50.80;;;;;;5037303;28;20205;-69
2023/06/14 00:48:30;;;;;;;4.28;3.60;;;20.30;50.60;;;;;;5019535;28;20198;-70
2023/06/14 00:50:57;;;;;;;3.38;3.08;;;20.30;50.80;;;;;;5032059;28;20189;-69
2023/06/14 00:53:29;;;;;;;4.57;3.42;;;20.20;50.60;;;;;;5039143;28;20227;-69
2023/06/14 00:55:54;;;;;;;5.30;3.55;;;20.20;50.80;;;;;;5039431;28;20158;-70
2023/06/14 00:58:22;;;;;;;4.95;3.63;;;20.20;51.20;;;;;;5035536;28;20180;-69
2023/06/14 01:00:55;;;;;;;4.95;3.80;;;20.20;51.30;;;;;;5035529;28;20174;-69
2023/06/14 01:03:25;;;;;;;9.35;3.40;;;20.10;51.00;;;;;;5035779;28;20425;-69
2023/06/14 01:06:05;;;;;;;3.47;3.17;;;20.10;50.90;;;;;;5028406;28;20173;-69
2023/06/14 01:08:51;;;;;;;6.10;3.90;;;20.10;51.50;;;;;;5032871;28;20210;-70
2023/06/14 01:11:28;;;;;;;5.32;4.15;;;20.10;52.30;;;;;;5035593;28;20176;-69
2023/06/14 01:13:56;;;;;;;6.07;3.72;;;20.00;51.50;;;;;;5047407;28;20209;-69
2023/06/14 01:16:23;;;;;;;8.20;5.05;;;20.00;51.20;;;;;;5023344;28;20177;-69
2023/06/14 01:18:49;;;;;;;8.55;4.30;;;20.00;51.00;;;;;;5055112;28;20177;-69
2023/06/14 01:21:22;;;;;;;4.30;3.88;;;20.00;51.10;;;;;;5050567;28;20185;-69
2023/06/14 01:23:52;;;;;;;3.83;3.42;;;19.90;51.70;;;;;;5038414;28;20247;-69
2023/06/14 01:26:30;;;;;;;4.35;3.92;;;19.90;51.60;;;;;;5038716;28;20188;-69
2023/06/14 01:28:58;;;;;;;3.92;3.53;;;19.90;52.20;;;;;;5034863;28;20252;-70
2023/06/14 01:31:24;;;;;;;4.28;3.88;;;19.90;51.60;;;;;;5030626;28;20173;-69
2023/06/14 01:33:53;;;;;;;4.57;3.58;;;19.90;51.80;;;;;;5038190;28;20204;-69
2023/06/14 01:36:27;;;;;;;5.30;3.88;;;19.80;51.90;;;;;;5019983;28;20170;-70
2023/06/14 01:38:58;;;;;;;4.03;3.40;;;19.80;52.30;;;;;;5018418;28;20284;-69
2023/06/14 01:41:28;;;;;;;3.90;3.50;;;19.70;52.30;;;;;;5020069;28;20178;-69
2023/06/14 01:43:55;;;;;;;3.85;3.20;;;19.70;52.50;;;;;;5038179;28;20208;-69
2023/06/14 01:46:21;;;;;;;3.92;3.40;;;19.70;52.30;;;;;;5037639;28;20281;-69
2023/06/14 01:48:49;;;;;;;4.40;3.60;;;19.70;52.40;;;;;;5038035;28;20216;-68
2023/06/14 01:51:15;;;;;;;3.72;3.35;;;19.60;52.40;;;;;;5037536;28;20189;-69
2023/06/14 01:53:41;;;;;;;3.75;3.35;;;19.60;52.50;;;;;;5054300;28;20201;-68
2023/06/14 01:56:07;;;;;;;3.67;3.38;;;19.60;52.50;;;;;;5038069;28;20261;-69
2023/06/14 01:58:32;;;;;;;6.38;3.53;;;19.60;52.90;;;;;;5026649;28;20205;-68
2023/06/14 02:01:00;;;;;;;3.88;3.47;;;19.60;52.70;;;;;;5021621;28;20189;-69
2023/06/14 02:03:26;;;;;;;3.97;3.05;;;19.50;52.70;;;;;;5054642;28;20181;-69
2023/06/14 02:05:52;;;;;;;3.70;3.30;;;19.50;52.80;;;;;;5033694;28;20177;-69
2023/06/14 02:08:18;;;;;;;4.28;3.50;;;19.50;53.40;;;;;;5032737;28;20208;-69
2023/06/14 02:10:46;;;;;;;3.47;3.17;;;19.50;52.90;;;;;;5071191;28;20260;-69
2023/06/14 02:13:12;;;;;;;4.47;3.58;;;19.50;53.00;;;;;;5055453;28;20179;-70
2023/06/14 02:15:37;;;;;;;3.90;3.38;;;19.50;53.10;;;;;;5053240;28;20193;-69
2023/06/14 02:18:04;;;;;;;4.35;3.50;;;19.50;53.10;;;;;;5037739;28;20188;-69
2023/06/14 02:20:30;;;;;;;3.70;3.40;;;19.50;53.20;;;;;;5037245;28;20216;-69
2023/06/14 02:22:56;;;;;;;4.13;3.50;;;19.40;53.30;;;;;;5053292;28;20173;-68
2023/06/14 02:25:24;;;;;;;4.18;3.55;;;19.40;53.30;;;;;;5017900;28;20198;-70
2023/06/14 02:27:49;;;;;;;3.78;3.38;;;19.40;53.50;;;;;;5028039;28;20197;-69
2023/06/14 02:30:15;;;;;;;3.50;3.17;;;19.30;53.60;;;;;;5054282;28;20193;-68
2023/06/14 02:32:43;;;;;;;4.18;3.78;;;19.30;53.60;;;;;;5050735;28;20173;-69
2023/06/14 02:35:11;;;;;;;4.50;3.65;;;19.20;53.60;;;;;;5044305;28;20224;-69
2023/06/14 02:37:39;;;;;;;5.57;4.03;;;19.20;53.50;;;;;;5070411;28;20209;-69
2023/06/14 02:40:06;;;;;;;4.03;3.50;;;19.20;53.60;;;;;;5054496;28;20236;-68
2023/06/14 02:42:31;;;;;;;4.10;3.70;;;19.10;53.70;;;;;;5034288;28;20174;-68
2023/06/14 02:44:57;;;;;;;4.03;3.63;;;19.10;53.70;;;;;;5050267;28;20179;-69
2023/06/14 02:47:24;;;;;;;4.20;3.80;;;19.00;53.80;;;;;;5038422;28;20215;-69
2023/06/14 02:49:50;;;;;;;5.10;3.78;;;19.00;53.80;;;;;;5070657;28;20169;-69
2023/06/14 02:52:15;;;;;;;3.80;3.40;;;19.00;54.00;;;;;;5052166;28;20200;-69
2023/06/14 02:54:41;;;;;;;4.68;3.55;;;18.90;53.90;;;;;;5017541;28;20182;-68
2023/06/14 02:57:07;;;;;;;3.70;3.30;;;18.80;54.00;;;;;;5035235;28;20389;-68
2023/06/14 02:59:36;;;;;;;3.50;3.20;;;18.80;54.10;;;;;;5037098;28;20185;-69
2023/06/14 03:02:02;;;;;;;4.05;3.65;;;18.80;54.80;;;;;;5037114;28;20267;-69
2023/06/14 03:04:29;;;;;;;4.15;3.70;;;18.70;54.40;;;;;;5037556;28;20197;-68
2023/06/14 03:06:54;;;;;;;4.10;3.63;;;18.70;54.40;;;;;;5025813;28;20201;-68
2023/06/14 03:09:20;;;;;;;3.95;3.55;;;18.60;54.90;;;;;;5017476;28;20204;-69
2023/06/14 03:11:46;;;;;;;3.95;3.55;;;18.60;54.50;;;;;;5035899;28;20193;-68
2023/06/14 03:14:13;;;;;;;5.10;3.83;;;18.60;54.50;;;;;;5047936;28;20174;-69
2023/06/14 03:16:41;;;;;;;4.85;3.72;;;18.60;55.20;;;;;;5031846;28;20193;-69
2023/06/14 03:19:06;;;;;;;5.88;3.80;;;18.50;54.70;;;;;;5048992;28;20248;-68
2023/06/14 03:21:34;;;;;;;5.00;3.70;;;18.50;54.80;;;;;;5017005;28;20186;-69
2023/06/14 03:24:00;;;;;;;4.68;3.63;;;18.50;54.80;;;;;;5031658;28;20189;-68
2023/06/14 03:26:25;;;;;;;5.32;3.63;;;18.50;55.00;;;;;;5038954;28;20267;-69
2023/06/14 03:28:54;;;;;;;3.92;3.53;;;18.40;55.00;;;;;;5074056;28;20263;-69
2023/06/14 03:31:23;;;;;;;4.63;3.75;;;18.40;55.20;;;;;;5056644;28;20185;-68
2023/06/14 03:33:49;;;;;;;4.68;4.18;;;18.40;55.10;;;;;;5034771;28;20173;-69
2023/06/14 03:36:14;;;;;;;4.60;3.88;;;18.40;55.30;;;;;;5040717;28;20211;-69
2023/06/14 03:38:40;;;;;;;5.22;4.15;;;18.40;55.40;;;;;;5040263;28;20265;-69
2023/06/14 03:41:06;;;;;;;4.80;3.95;;;18.40;55.40;;;;;;5040645;28;20189;-69
2023/06/14 03:43:31;;;;;;;4.50;3.80;;;18.40;55.60;;;;;;5040009;28;20212;-69
2023/06/14 03:45:59;;;;;;;4.43;3.67;;;18.30;55.70;;;;;;5056765;28;20192;-69
2023/06/14 03:48:25;;;;;;;4.40;4.00;;;18.30;55.80;;;;;;5040105;28;20209;-69
2023/06/14 03:50:50;;;;;;;3.85;3.45;;;18.30;55.80;;;;;;5039925;28;20488;-69
2023/06/14 03:53:16;;;;;;;4.05;3.50;;;18.30;56.00;;;;;;5039219;28;20276;-68
2023/06/14 03:55:42;;;;;;;4.95;3.47;;;18.20;56.10;;;;;;5040207;28;20169;-68
2023/06/14 03:58:08;;;;;;;5.40;3.90;;;18.20;56.10;;;;;;5036536;28;20174;-69
2023/06/14 04:00:33;;;;;;;4.22;3.70;;;18.20;56.30;;;;;;5020474;28;20265;-69
2023/06/14 04:02:59;;;;;;;5.25;3.97;;;18.20;56.80;;;;;;5037031;28;20285;-68
2023/06/14 04:05:26;;;;;;;4.45;3.83;;;18.20;56.50;;;;;;5039914;28;20177;-69
2023/06/14 04:07:56;;;;;;;5.95;3.60;;;18.20;56.40;;;;;;5039946;28;20200;-69
2023/06/14 04:10:22;;;;;;;4.57;3.88;;;18.20;56.50;;;;;;5027333;28;20204;-69
2023/06/14 04:12:49;;;;;;;5.32;3.65;;;18.20;56.50;;;;;;5020153;28;20178;-69
2023/06/14 04:15:16;;;;;;;4.68;3.58;;;18.20;56.60;;;;;;5039074;28;20197;-68
2023/06/14 04:17:42;;;;;;;4.28;3.38;;;18.20;56.70;;;;;;5026083;28;20182;-68
2023/06/14 04:20:09;;;;;;;5.30;3.45;;;18.20;56.80;;;;;;5024578;28;20258;-69
2023/06/14 04:22:37;;;;;;;5.10;3.35;;;18.20;57.00;;;;;;5040035;28;20205;-69
2023/06/14 04:25:11;;;;;;;4.30;3.63;;;18.20;57.10;;;;;;5038989;28;20284;-69
2023/06/14 04:27:38;;;;;;;3.72;3.42;;;18.30;57.20;;;;;;5036097;28;20207;-69
2023/06/14 04:30:04;;;;;;;4.82;4.07;;;18.30;57.10;;;;;;5019618;28;20204;-68
2023/06/14 04:32:38;;;;;;;4.10;3.70;;;18.30;57.30;;;;;;5032389;28;20170;-69
2023/06/14 04:35:07;;;;;;;4.45;3.67;;;18.30;57.50;;;;;;5042908;28;20201;-68
2023/06/14 04:37:33;;;;;;;4.10;3.67;;;18.30;57.30;;;;;;5055589;28;20260;-69
2023/06/14 04:40:03;;;;;;;4.88;3.80;;;18.30;58.00;;;;;;5041588;28;20363;-69
2023/06/14 04:42:32;;;;;;;3.92;3.40;;;18.40;57.60;;;;;;5020330;28;20228;-69
2023/06/14 04:44:58;;;;;;;5.18;3.50;;;18.40;58.20;;;;;;5072650;28;20259;-69
2023/06/14 04:47:29;;;;;;;4.60;3.38;;;18.40;57.80;;;;;;5068046;28;20177;-69
2023/06/14 04:50:00;;;;;;;4.40;3.40;;;18.40;58.10;;;;;;5039061;28;20158;-69
2023/06/14 04:52:26;;;;;;;3.45;3.15;;;18.50;58.00;;;;;;5038681;28;20177;-69
2023/06/14 04:54:53;;;;;;;4.03;3.30;;;18.50;57.80;;;;;;5038754;28;20177;-70
2023/06/14 04:57:22;;;;;;;5.28;3.28;;;18.60;57.80;;;;;;5038425;28;20211;-70
2023/06/14 04:59:48;;;;;;;4.72;3.60;;;18.60;57.70;;;;;;5072401;28;20169;-70
2023/06/14 05:02:14;;;;;;;3.67;2.97;;;18.60;58.00;;;;;;5057287;28;20174;-69
2023/06/14 05:04:42;;;;;;;4.90;3.50;;;18.70;57.40;;;;;;5038299;28;20188;-71
2023/06/14 05:07:11;;;;;;;4.63;3.13;;;18.80;57.90;;;;;;5038523;28;20242;-70
2023/06/14 05:09:36;;;;;;;3.20;2.78;;;18.90;57.40;;;;;;5038523;28;20208;-68
2023/06/14 05:12:07;;;;;;;3.28;2.72;;;18.90;57.30;;;;;;5038512;28;20197;-70
2023/06/14 05:14:34;;;;;;;5.47;3.42;;;19.00;57.30;;;;;;5038775;28;20169;-70
2023/06/14 05:17:00;;;;;;;3.88;3.08;;;19.10;57.20;;;;;;5038406;28;20197;-69
2023/06/14 05:19:26;;;;;;;5.32;2.95;;;19.10;57.00;;;;;;5047044;28;20184;-70
2023/06/14 05:21:54;;;;;;;3.70;3.05;;;19.20;57.00;;;;;;5038821;28;20201;-69
2023/06/14 05:24:20;;;;;;;3.25;2.92;;;19.30;56.90;;;;;;5037277;28;20219;-70
2023/06/14 05:26:46;;;;;;;5.03;3.10;;;19.40;56.90;;;;;;5038538;28;20292;-70
2023/06/14 05:29:14;;;;;;;5.18;2.90;;;19.40;56.90;;;;;;5019115;28;20284;-69
2023/06/14 05:31:40;;;;;;;4.38;2.83;;;19.50;56.90;;;;;;5028335;28;20216;-70
2023/06/14 05:34:06;;;;;;;4.47;2.97;;;19.60;56.90;;;;;;5071345;28;20295;-71
2023/06/14 05:36:36;;;;;;;4.03;2.95;;;19.60;56.80;;;;;;5071289;28;20172;-69
2023/06/14 05:39:02;;;;;;;4.47;2.88;;;19.70;56.60;;;;;;5062478;28;20249;-69
2023/06/14 05:41:31;;;;;;;3.58;2.78;;;19.70;56.60;;;;;;5018427;28;20190;-70
2023/06/14 05:43:57;;;;;;;3.75;2.80;;;19.80;56.70;;;;;;5034850;28;20223;-69
2023/06/14 05:46:27;;;;;;;3.38;2.70;;;19.90;56.70;;;;;;5037701;28;20264;-69
2023/06/14 05:48:53;;;;;;;3.85;3.00;;;19.90;56.70;;;;;;5060773;28;20228;-69
2023/06/14 05:51:19;;;;;;;4.32;2.80;;;20.00;56.60;;;;;;5044019;28;20195;-68
2023/06/14 05:53:50;;;;;;;3.97;3.13;;;20.00;56.40;;;;;;5070776;28;20197;-69
2023/06/14 05:56:19;;;;;;;4.70;3.50;;;20.00;56.40;;;;;;5037885;28;20161;-69
2023/06/14 05:58:48;;;;;;;6.60;5.07;;;20.10;56.40;;;;;;5027693;28;20271;-69
2023/06/14 06:01:14;;;;;;;4.88;4.15;;;20.10;56.40;;;;;;5018254;28;20181;-68
2023/06/14 06:03:41;;;;;;;6.60;4.30;;;20.20;56.40;;;;;;5037617;28;20243;-68
2023/06/14 06:06:07;;;;;;;4.03;3.47;;;20.20;56.40;;;;;;5037511;28;20174;-67
2023/06/14 06:08:33;;;;;;;4.95;3.83;;;20.20;56.40;;;;;;5037207;28;20205;-69
2023/06/14 06:11:01;;;;;;;7.57;4.65;;;20.30;56.40;;;;;;5037619;28;20195;-68
2023/06/14 06:13:27;;;;;;;4.78;3.90;;;20.30;56.40;;;;;;5037322;28;20224;-69
2023/06/14 06:15:57;;;;;;;3.83;3.42;;;20.30;56.40;;;;;;5053783;28;20219;-69
2023/06/14 06:18:25;;;;;;;3.25;2.90;;;20.40;56.50;;;;;;5070545;28;20169;-69
2023/06/14 06:20:51;;;;;;;4.20;3.00;;;20.40;56.50;;;;;;5070223;28;20196;-69
2023/06/14 06:23:17;;;;;;;8.43;5.78;;;20.50;56.40;;;;;;5070907;28;20240;-69
2023/06/14 06:25:47;;;;;;;6.28;4.72;;;20.50;56.40;;;;;;5035749;28;20208;-69
2023/06/14 06:28:13;;;;;;;4.40;3.70;;;20.60;56.30;;;;;;5026870;28;20192;-69
2023/06/14 06:30:41;;;;;;;4.13;2.80;;;20.60;56.20;;;;;;5054271;28;20256;-68
2023/06/14 06:33:07;;;;;;;3.33;2.90;;;20.70;56.20;;;;;;5038413;28;20189;-70
2023/06/14 06:35:33;;;;;;;5.32;2.58;;;20.70;56.00;;;;;;5036101;28;20166;-68
2023/06/14 06:37:59;;;;;;;4.70;2.70;;;20.80;55.80;;;;;;5054312;28;20264;-68
2023/06/14 06:40:27;;;;;;;6.88;2.75;;;20.90;55.80;;;;;;5053698;28;20253;-68
2023/06/14 06:42:53;;;;;;;4.68;2.50;;;20.90;55.80;;;;;;5037077;28;20191;-68
2023/06/14 06:45:18;;;;;;;3.17;2.88;;;20.90;55.60;;;;;;5053325;28;20197;-69
2023/06/14 06:47:46;;;;;;;3.22;2.40;;;20.90;55.60;;;;;;5033824;28;20198;-68
2023/06/14 06:50:12;;;;;;;5.40;3.08;;;21.00;55.60;;;;;;5037067;28;20193;-68
2023/06/14 06:52:38;;;;;;;3.95;3.13;;;21.00;55.50;;;;;;5017569;28;20184;-69
2023/06/14 06:55:06;;;;;;;3.75;2.63;;;21.10;55.40;;;;;;5033802;28;20481;-69
2023/06/14 06:57:31;;;;;;;3.65;2.80;;;21.10;55.40;;;;;;5033812;28;20169;-68
2023/06/14 06:59:59;;;;;;;3.00;2.30;;;21.20;55.40;;;;;;5020965;28;20173;-68
2023/06/14 07:02:25;;;;;;;3.92;2.30;;;21.20;55.30;;;;;;5073699;28;20268;-70
2023/06/14 07:04:51;;;;;;;3.15;2.50;;;21.30;55.20;;;;;;5073188;28;20252;-69
2023/06/14 07:07:19;;;;;;;3.35;2.67;;;21.30;55.10;;;;;;5073836;28;20169;-70
2023/06/14 07:09:45;;;;;;;6.10;2.35;;;21.30;55.00;;;;;;5073988;28;20189;-69
2023/06/14 07:12:11;;;;;;;3.67;2.42;;;21.40;55.10;;;;;;5041425;28;20486;-61
2023/06/14 07:14:39;;;;;;;4.20;2.35;;;21.40;55.00;;;;;;5049704;28;20189;-65
2023/06/14 07:17:05;;;;;;;4.18;3.40;;;21.50;55.10;;;;;;5072391;28;20283;-65
2023/06/14 07:19:31;;;;;;;3.80;2.63;;;21.50;55.00;;;;;;5040181;28;20216;-65
2023/06/14 07:21:58;;;;;;;5.50;2.88;;;21.60;55.00;;;;;;5040658;28;20259;-65
2023/06/14 07:24:23;;;;;;;4.90;2.67;;;21.60;54.90;;;;;;5050722;28;20207;-65
2023/06/14 07:26:49;;;;;;;2.38;2.17;;;21.70;54.70;;;;;;5073510;28;20259;-65
2023/06/14 07:29:16;;;;;;;2.88;2.20;;;21.70;54.60;;;;;;5020762;28;20194;-66
2023/06/14 07:31:44;;;;;;;2.90;2.00;;;21.80;54.30;;;;;;5041486;28;20272;-64
2023/06/14 07:34:09;;;;;;;2.88;2.22;;;21.80;54.30;;;;;;5058846;28;20178;-64
2023/06/14 07:36:36;;;;;;;3.33;2.20;;;21.80;54.20;;;;;;5040120;28;20212;-64
2023/06/14 07:39:06;;;;;;;2.78;2.15;;;21.80;54.20;;;;;;5035445;28;20181;-66
2023/06/14 07:41:31;;;;;;;2.95;1.90;;;21.90;54.30;;;;;;5039949;28;20173;-65
2023/06/14 07:43:57;;;;;;;1.90;1.70;;;21.90;54.10;;;;;;5036711;28;20200;-65
2023/06/14 07:46:23;;;;;;;1.95;1.75;;;22.00;54.10;;;;;;5038891;28;20177;-65
2023/06/14 07:48:51;;;;;;;2.47;1.70;;;22.00;54.00;;;;;;5036501;28;20198;-64
2023/06/14 07:51:19;;;;;;;2.22;1.58;;;22.10;53.60;;;;;;5046603;28;20196;-65
2023/06/14 07:53:47;;;;;;;2.35;1.63;;;22.10;53.50;;;;;;5036632;28;20174;-65
2023/06/14 07:56:18;;;;;;;1.77;1.50;;;22.20;53.40;;;;;;5071898;28;20169;-65
2023/06/14 07:58:43;;;;;;;2.25;1.70;;;22.20;53.60;;;;;;5019790;28;20431;-65
2023/06/14 08:01:10;;;;;;;2.17;1.50;;;22.30;53.40;;;;;;5031302;28;20205;-65
2023/06/14 08:03:38;;;;;;;1.67;1.58;;;22.30;53.40;;;;;;5039793;28;20198;-65
2023/06/14 08:06:04;;;;;;;1.65;1.55;;;22.40;53.10;;;;;;5039640;28;20234;-65
2023/06/14 08:08:30;;;;;;;1.70;1.60;;;22.40;53.20;;;;;;5039210;28;20208;-65
2023/06/14 08:10:56;;;;;;;1.70;1.50;;;22.50;53.30;;;;;;5039936;28;20200;-65
2023/06/14 08:13:22;;;;;;;2.78;1.70;;;22.50;53.10;;;;;;5034642;28;20221;-65
2023/06/14 08:15:47;;;;;;;1.83;1.70;;;22.60;53.10;;;;;;5019884;28;20166;-65
2023/06/14 08:18:15;;;;;;;2.10;1.77;;;22.60;53.00;;;;;;5036488;28;20209;-65
2023/06/14 08:20:43;;;;;;;2.53;1.75;;;22.70;52.70;;;;;;5039284;28;20182;-65
2023/06/14 08:23:09;;;;;;;1.88;1.42;;;22.70;52.60;;;;;;5039496;28;20201;-64
2023/06/14 08:25:35;;;;;;;1.95;1.60;;;22.80;52.50;;;;;;5039348;28;20174;-65
2023/06/14 08:28:03;;;;;;;3.58;1.77;;;22.80;52.50;;;;;;5038960;28;20201;-64
2023/06/14 08:30:28;;;;;;;1.70;1.40;;;22.90;52.30;;;;;;5055913;28;20174;-65
2023/06/14 08:32:56;;;;;;;2.83;1.40;;;22.90;52.30;;;;;;5052314;28;20171;-65
2023/06/14 08:35:24;;;;;;;2.20;1.52;;;23.00;52.40;;;;;;5051644;28;20335;-65
2023/06/14 08:37:50;;;;;;;1.90;1.60;;;23.00;52.30;;;;;;5039185;28;20188;-65
2023/06/14 08:40:23;;;;;;;1.67;1.40;;;23.10;52.20;;;;;;5072226;28;20177;-65
2023/06/14 08:42:58;;;;;;;2.05;1.30;;;23.20;52.00;;;;;;5061304;28;20182;-65
2023/06/14 08:45:24;;;;;;;1.38;1.25;;;23.20;51.80;;;;;;5036000;28;20201;-65
2023/06/14 08:47:57;;;;;;;3.58;1.65;;;23.30;52.00;;;;;;5035252;28;20194;-65
2023/06/14 08:50:26;;;;;;;1.73;1.40;;;23.30;51.60;;;;;;5018825;28;20260;-65
2023/06/14 08:52:54;;;;;;;3.78;1.65;;;23.40;51.70;;;;;;5019214;28;20173;-65
2023/06/14 08:55:25;;;;;;;1.58;1.40;;;23.40;51.40;;;;;;5028841;28;20202;-65
2023/06/14 08:57:53;;;;;;;1.50;1.40;;;23.50;51.60;;;;;;5035075;28;20230;-65
2023/06/14 09:00:22;;;;;;;2.22;1.40;;;23.60;51.50;;;;;;5018952;28;20202;-64
2023/06/14 09:02:55;;;;;;;1.90;1.27;;;23.70;51.30;;;;;;5018928;28;20178;-65
2023/06/14 09:05:23;;;;;;;2.65;1.40;;;23.70;51.40;;;;;;5035225;28;20294;-65
2023/06/14 09:07:51;;;;;;;1.50;1.33;;;23.80;51.00;;;;;;5020226;28;20216;-65
2023/06/14 09:10:22;;;;;;;1.35;1.20;;;23.80;50.80;;;;;;5038525;28;20198;-65
2023/06/14 09:12:48;;;;;;;3.08;1.42;;;23.90;50.60;;;;;;5050540;28;20227;-65
2023/06/14 09:15:14;;;;;;;2.20;1.63;;;23.90;50.50;;;;;;5069740;28;20193;-65
2023/06/14 09:17:40;;;;;;;2.08;1.42;;;23.90;49.20;;;;;;5071876;28;20180;-65
2023/06/14 09:20:13;;;;;;;1.75;1.40;;;24.00;49.80;;;;;;5057028;28;20239;-65
2023/06/14 09:22:39;;;;;;;1.48;1.35;;;24.00;49.30;;;;;;5018741;28;20172;-63
2023/06/14 09:25:05;;;;;;;1.73;1.33;;;24.10;49.30;;;;;;5032201;28;20244;-64
2023/06/14 09:27:35;;;;;;;1.40;1.30;;;24.10;48.80;;;;;;5028368;28;20181;-65
2023/06/14 09:30:05;;;;;;;1.40;1.30;;;24.20;49.00;;;;;;5038182;28;20161;-64
2023/06/14 09:32:31;;;;;;;1.70;1.30;;;24.20;49.00;;;;;;5054734;28;20208;-65
2023/06/14 09:34:59;;;;;;;2.65;2.10;;;24.30;49.10;;;;;;5054768;28;20184;-65
2023/06/14 09:37:29;;;;;;;2.00;1.80;;;24.30;48.60;;;;;;5034546;28;20237;-65
2023/06/14 09:39:55;;;;;;;1.83;1.50;;;24.40;48.60;;;;;;5034827;28;20178;-65
2023/06/14 09:42:21;;;;;;;1.77;1.30;;;24.50;48.80;;;;;;5049903;28;20264;-65
2023/06/14 09:44:51;;;;;;;1.95;1.35;;;24.50;48.40;;;;;;5058431;28;20185;-65
2023/06/14 09:47:19;;;;;;;1.30;1.10;;;24.60;48.40;;;;;;5028999;28;20201;-66
2023/06/14 09:49:45;;;;;;;1.20;1.10;;;24.70;48.20;;;;;;5038009;28;20205;-65
2023/06/14 09:52:14;;;;;;;1.42;1.20;;;24.70;48.30;;;;;;5032731;28;20228;-64
2023/06/14 09:54:46;;;;;;;3.40;1.60;;;24.80;48.00;;;;;;5034504;28;20261;-66
2023/06/14 09:57:13;;;;;;;2.08;1.35;;;24.90;47.60;;;;;;5034075;28;20597;-65
2023/06/14 09:59:43;;;;;;;1.63;1.20;;;24.90;48.10;;;;;;5023331;28;20193;-65
2023/06/14 10:02:27;;;;;;;1.70;1.40;;;25.00;47.30;;;;;;5017883;28;20197;-65
2023/06/14 10:05:05;;;;;;;2.05;1.50;;;25.10;47.10;;;;;;5036995;28;20231;-63
2023/06/14 10:07:35;;;;;;;2.20;2.00;;;25.10;46.60;;;;;;5043415;28;20201;-65
2023/06/14 10:10:04;;;;;;;1.77;1.42;;;25.20;47.40;;;;;;5069208;28;20237;-64
2023/06/14 10:12:33;;;;;;;3.13;1.50;;;25.20;47.40;;;;;;5037474;28;20193;-65
2023/06/14 10:15:01;;;;;;;1.77;1.40;;;25.30;47.70;;;;;;5036593;28;20188;-65
2023/06/14 10:17:52;;;;;;;1.38;1.17;;;25.30;47.70;;;;;;5037259;28;20213;-65
2023/06/14 10:20:45;;;;;;;3.30;1.30;;;25.40;47.30;;;;;;5037512;28;20165;-65
2023/06/14 10:23:17;;;;;;;1.75;1.45;;;25.50;47.40;;;;;;5017526;28;20201;-65
2023/06/14 10:25:43;;;;;;;2.35;1.90;;;25.60;47.30;;;;;;5027997;28;20235;-65
2023/06/14 10:28:19;;;;;;;2.35;1.95;;;25.60;47.70;;;;;;5035156;28;20201;-65
2023/06/14 10:31:08;;;;;;;2.00;1.73;;;25.70;47.50;;;;;;5066352;28;20173;-65
2023/06/14 10:33:58;;;;;;;2.20;1.50;;;25.80;47.30;;;;;;5018199;28;20345;-65
2023/06/14 10:36:27;;;;;;;1.38;1.27;;;25.90;47.60;;;;;;5036597;28;20170;-65
2023/06/14 10:39:07;;;;;;;1.52;1.27;;;26.10;47.50;;;;;;5036953;28;20200;-65
2023/06/14 10:41:40;;;;;;;4.70;1.30;;;26.20;47.00;;;;;;5053393;28;20177;-65
2023/06/14 10:44:14;;;;;;;1.60;1.27;;;26.40;47.10;;;;;;5053393;28;20220;-65
2023/06/14 10:46:46;;;;;;;3.15;1.30;;;26.70;47.60;;;;;;5038092;28;20185;-65
2023/06/14 10:49:11;;;;;;;2.08;1.40;;;26.90;47.00;;;;;;5020633;28;20205;-64
2023/06/14 10:51:47;;;;;;;2.65;1.40;;;27.10;47.70;;;;;;5033123;28;20248;-66
2023/06/14 10:54:13;;;;;;;2.53;1.40;;;27.30;47.00;;;;;;5016955;28;20221;-66
2023/06/14 10:56:49;;;;;;;1.75;1.40;;;27.50;47.60;;;;;;5017346;28;20170;-65
2023/06/14 10:59:16;;;;;;;1.73;1.40;;;27.80;47.10;;;;;;5047461;28;20205;-65
2023/06/14 11:02:09;;;;;;;3.42;1.30;;;28.00;46.80;;;;;;5063869;28;20187;-65
2023/06/14 11:04:47;;;;;;;1.48;1.38;;;28.10;45.90;;;;;;5036674;28;20262;-65
2023/06/14 11:07:44;;;;;;;1.70;1.50;;;28.20;45.70;;;;;;5036701;28;20177;-64
2023/06/14 11:10:16;;;;;;;2.58;1.40;;;28.30;44.90;;;;;;5049726;28;20237;-65
2023/06/14 11:12:45;;;;;;;1.77;1.33;;;28.30;45.80;;;;;;5023601;28;20174;-65
2023/06/14 11:15:12;;;;;;;2.55;2.15;;;28.30;45.80;;;;;;5036461;28;20366;-65
2023/06/14 11:17:38;;;;;;;2.67;1.75;;;28.40;45.90;;;;;;5067019;28;20181;-65
2023/06/14 11:20:15;;;;;;;1.55;1.30;;;28.50;45.70;;;;;;5068961;28;20197;-65
2023/06/14 11:22:41;;;;;;;1.80;1.30;;;28.60;45.50;;;;;;5053405;28;20196;-65
2023/06/14 11:25:12;;;;;;;1.30;1.20;;;28.80;45.80;;;;;;5036792;28;20203;-65
2023/06/14 11:27:41;;;;;;;2.13;1.10;;;28.90;45.10;;;;;;5045245;28;20185;-65
2023/06/14 11:30:09;;;;;;;2.40;1.30;;;28.90;45.20;;;;;;5046337;28;20198;-65
2023/06/14 11:32:36;;;;;;;1.48;1.35;;;28.90;44.70;;;;;;5018956;28;20170;-65
2023/06/14 11:35:06;;;;;;;1.90;1.40;;;28.80;44.30;;;;;;5036575;28;20262;-64
2023/06/14 11:37:37;;;;;;;1.33;1.17;;;28.70;43.90;;;;;;5036464;28;20169;-65
2023/06/14 11:40:09;;;;;;;1.73;1.63;;;28.50;43.90;;;;;;5036948;28;20234;-64
2023/06/14 11:42:39;;;;;;;1.30;1.13;;;28.40;44.30;;;;;;5036868;28;20247;-65
2023/06/14 11:45:08;;;;;;;1.45;1.20;;;28.30;44.30;;;;;;5046007;28;20174;-64
2023/06/14 11:47:35;;;;;;;1.38;1.10;;;28.30;44.50;;;;;;5069250;28;20198;-65
2023/06/14 11:50:02;;;;;;;1.75;1.45;;;28.30;44.30;;;;;;5073323;28;20444;-64
2023/06/14 11:52:30;;;;;;;2.92;1.88;;;28.20;44.30;;;;;;5059376;28;20189;-65
2023/06/14 11:54:57;;;;;;;1.55;1.30;;;28.20;44.30;;;;;;5036871;28;20166;-65
2023/06/14 11:57:28;;;;;;;1.35;1.23;;;28.10;44.80;;;;;;5036561;28;20188;-65
2023/06/14 11:59:56;;;;;;;2.42;1.30;;;28.20;44.90;;;;;;5032710;28;20177;-65
2023/06/14 12:02:22;;;;;;;2.25;1.40;;;28.40;45.10;;;;;;5056519;28;20201;-64
2023/06/14 12:04:48;;;;;;;1.50;1.13;;;28.60;45.00;;;;;;5055691;28;20425;-65
2023/06/14 12:07:19;;;;;;;1.40;1.20;;;28.80;44.90;;;;;;5069339;28;20201;-65
2023/06/14 12:09:56;;;;;;;1.60;1.45;;;29.00;44.60;;;;;;5039676;28;20212;-65
2023/06/14 12:12:22;;;;;;;1.10;1.00;;;29.30;43.70;;;;;;5039487;28;20287;-63
2023/06/14 12:14:51;;;;;;;9.40;4.93;;;29.50;44.20;;;;;;5055809;28;20269;-65
2023/06/14 12:17:18;;;;;;;3.13;2.70;;;29.60;43.40;;;;;;5073024;28;20203;-65
2023/06/14 12:19:45;;;;;;;1.75;1.52;;;29.80;43.30;;;;;;5062881;28;20264;-65
2023/06/14 12:22:16;;;;;;;2.00;1.58;;;29.90;42.90;;;;;;5038866;28;20250;-65
2023/06/14 12:24:46;;;;;;;2.25;1.10;;;30.10;42.90;;;;;;5072931;28;20196;-65
2023/06/14 12:27:15;;;;;;;1.13;1.02;;;30.30;42.80;;;;;;5039343;28;20196;-65
2023/06/14 12:29:43;;;;;;;1.20;1.00;;;30.40;42.90;;;;;;5039762;28;20200;-65
2023/06/14 12:32:09;;;;;;;1.10;0.98;;;30.40;42.50;;;;;;5055154;28;20173;-65
2023/06/14 12:34:37;;;;;;;1.52;0.93;;;30.50;42.60;;;;;;5061811;28;20188;-65
2023/06/14 12:37:06;;;;;;;0.98;0.90;;;30.60;42.30;;;;;;5038831;28;20225;-65
2023/06/14 12:39:39;;;;;;;1.83;0.98;;;30.60;42.20;;;;;;5039568;28;20183;-65
2023/06/14 12:42:05;;;;;;;2.25;1.10;;;30.60;42.50;;;;;;5039143;28;20219;-65
2023/06/14 12:44:35;;;;;;;1.10;1.00;;;30.70;42.20;;;;;;5055925;28;20256;-65
2023/06/14 12:47:01;;;;;;;1.15;1.00;;;30.70;41.70;;;;;;5055786;28;20177;-65
2023/06/14 12:49:27;;;;;;;1.00;0.90;;;30.80;42.20;;;;;;5178260;22;20236;-63
2023/06/14 12:51:52;;;;;;;1.33;0.95;;;30.80;42.00;;;;;;5035729;28;20181;-62
2023/06/14 12:54:22;;;;;;;1.13;0.88;;;30.90;42.00;;;;;;5055527;28;20177;-64